Time;durP1;ratioP1;P1;durP2;ratioP2;P2;SDS_P1;SDS_P2;PMS_P1;PMS_P2;Temp;Humidity;BMP_temperature;BMP_pressure;BME280_temperature;BME280_humidity;BME280_pressure;Samples;Min_cycle;Max_cycle;Signal;HPM_P1;HPM_P2
2022/05/14 00:00:26;;;;;;;14.60;6.30;;;;;;;;;;5003424;28;20441;-81
2022/05/14 00:02:55;;;;;;;13.98;6.25;;;;;;;;;;5000618;28;20484;-82
2022/05/14 00:05:22;;;;;;;11.88;6.57;;;;;;;;;;4999454;28;20438;-81
2022/05/14 00:07:51;;;;;;;10.07;6.45;;;;;;;;;;5001789;28;20850;-82
2022/05/14 00:10:18;;;;;;;14.27;6.75;;;;;;;;;;5001736;28;20442;-80
2022/05/14 00:15:28;;;;;;;16.38;6.88;;;;;;;;;;5003449;28;20915;-82
2022/05/14 00:17:55;;;;;;;12.23;6.40;;;;;;;;;;5001700;28;20489;-81
2022/05/14 00:20:23;;;;;;;13.07;6.82;;;;;;;;;;4999880;28;20446;-81
2022/05/14 00:22:51;;;;;;;10.30;6.10;;;;;;;;;;5001877;28;20445;-81
2022/05/14 00:25:18;;;;;;;12.10;6.20;;;;;;;;;;5002880;28;20443;-82
2022/05/14 00:27:44;;;;;;;16.45;7.20;;;;;;;;;;5001815;28;20457;-78
2022/05/14 00:30:12;;;;;;;14.95;7.35;;;;;;;;;;5003249;28;20510;-82
2022/05/14 00:32:39;;;;;;;16.23;6.40;;;;;;;;;;5002586;28;20509;-81
2022/05/14 00:35:06;;;;;;;13.13;5.90;;;;;;;;;;5000782;28;20433;-81
2022/05/14 00:37:33;;;;;;;13.55;6.60;;;;;;;;;;5001049;28;20434;-82
2022/05/14 00:40:02;;;;;;;11.82;6.35;;;;;;;;;;5002085;28;20438;-81
2022/05/14 00:42:28;;;;;;;15.20;6.40;;;;;;;;;;5000938;28;20932;-80
2022/05/14 00:44:54;;;;;;;14.43;6.72;;;;;;;;;;5003114;28;20432;-81
2022/05/14 00:47:21;;;;;;;14.13;6.88;;;;;;;;;;5002797;28;20424;-81
2022/05/14 00:49:48;;;;;;;12.25;6.65;;;;;;;;;;5002662;28;20888;-81
2022/05/14 00:52:16;;;;;;;14.35;7.35;;;;;;;;;;4998638;28;20919;-80
2022/05/14 00:54:46;;;;;;;12.80;6.35;;;;;;;;;;5000699;28;20915;-79
2022/05/14 00:57:17;;;;;;;14.40;6.60;;;;;;;;;;5002398;28;20426;-82
2022/05/14 00:59:44;;;;;;;13.25;6.80;;;;;;;;;;5003248;28;20475;-79
2022/05/14 01:02:10;;;;;;;11.18;6.05;;;;;;;;;;5001322;28;20433;-81
2022/05/14 01:04:39;;;;;;;10.43;5.97;;;;;;;;;;5000997;28;20434;-82
2022/05/14 01:07:08;;;;;;;11.32;6.35;;;;;;;;;;5002399;28;20422;-82
2022/05/14 01:09:35;;;;;;;10.68;6.10;;;;;;;;;;5001830;28;20503;-82
2022/05/14 01:12:03;;;;;;;14.07;6.15;;;;;;;;;;4997894;28;20782;-81
2022/05/14 01:14:30;;;;;;;12.95;5.97;;;;;;;;;;5003212;28;20453;-81
2022/05/14 01:16:56;;;;;;;12.60;6.00;;;;;;;;;;5002362;28;20439;-82
2022/05/14 01:19:23;;;;;;;10.20;5.97;;;;;;;;;;5002778;28;20430;-80
2022/05/14 01:21:58;;;;;;;14.13;6.00;;;;;;;;;;5001326;28;20463;-80
2022/05/14 01:27:15;;;;;;;13.38;6.60;;;;;;;;;;5003057;28;21054;-81
2022/05/14 01:29:42;;;;;;;11.68;5.93;;;;;;;;;;5000237;28;20472;-80
2022/05/14 01:32:09;;;;;;;13.02;5.90;;;;;;;;;;5001731;28;20458;-80
2022/05/14 01:34:35;;;;;;;13.40;6.15;;;;;;;;;;5002886;28;20441;-81
2022/05/14 01:37:03;;;;;;;12.48;6.50;;;;;;;;;;5000391;28;20461;-79
2022/05/14 01:39:29;;;;;;;14.20;6.90;;;;;;;;;;5001011;28;20444;-80
2022/05/14 01:41:55;;;;;;;13.68;7.03;;;;;;;;;;5001697;28;20496;-81
2022/05/14 01:44:23;;;;;;;10.80;6.57;;;;;;;;;;5002793;28;20442;-80
2022/05/14 01:46:50;;;;;;;13.55;6.68;;;;;;;;;;5002452;28;20434;-80
2022/05/14 01:49:16;;;;;;;13.18;7.20;;;;;;;;;;5001888;28;20480;-82
2022/05/14 01:51:43;;;;;;;14.07;7.40;;;;;;;;;;4996953;28;20443;-79
2022/05/14 01:54:09;;;;;;;12.63;7.43;;;;;;;;;;4998820;28;20437;-80
2022/05/14 01:56:35;;;;;;;11.48;6.40;;;;;;;;;;4997476;28;20854;-81
2022/05/14 01:59:02;;;;;;;14.95;7.07;;;;;;;;;;4999627;28;20428;-79
2022/05/14 02:01:30;;;;;;;15.50;6.85;;;;;;;;;;4999006;28;20434;-78
2022/05/14 02:03:57;;;;;;;15.10;6.60;;;;;;;;;;4996745;28;20858;-80
2022/05/14 02:06:25;;;;;;;12.88;7.47;;;;;;;;;;4999482;28;20436;-79
2022/05/14 02:08:51;;;;;;;13.43;6.95;;;;;;;;;;4999476;28;20432;-79
2022/05/14 02:11:17;;;;;;;12.18;6.35;;;;;;;;;;4997279;28;20841;-80
2022/05/14 02:13:44;;;;;;;13.32;7.07;;;;;;;;;;5000514;28;20453;-79
2022/05/14 02:16:11;;;;;;;13.02;6.90;;;;;;;;;;5002880;28;20508;-80
2022/05/14 02:18:38;;;;;;;20.05;7.78;;;;;;;;;;5001550;28;20488;-80
2022/05/14 02:21:05;;;;;;;16.15;7.00;;;;;;;;;;5003399;28;20428;-79
2022/05/14 02:23:31;;;;;;;16.00;7.22;;;;;;;;;;5002436;28;20424;-79
2022/05/14 02:25:58;;;;;;;12.30;6.47;;;;;;;;;;5003984;28;20490;-79
2022/05/14 02:28:24;;;;;;;13.02;6.50;;;;;;;;;;5002718;28;20423;-79
2022/05/14 02:30:51;;;;;;;10.88;6.47;;;;;;;;;;5002915;28;20494;-79
2022/05/14 02:33:17;;;;;;;13.52;6.40;;;;;;;;;;5002323;28;20433;-80
2022/05/14 02:35:45;;;;;;;11.27;6.85;;;;;;;;;;5003131;28;20434;-81
2022/05/14 02:38:12;;;;;;;13.85;6.88;;;;;;;;;;5001959;28;20978;-79
2022/05/14 02:40:39;;;;;;;12.07;6.35;;;;;;;;;;5003505;28;20521;-80
2022/05/14 02:43:05;;;;;;;16.48;7.45;;;;;;;;;;5002792;28;20487;-79
2022/05/14 02:45:31;;;;;;;15.38;8.70;;;;;;;;;;5003389;28;20433;-80
2022/05/14 02:47:58;;;;;;;13.20;6.90;;;;;;;;;;5003165;28;20438;-79
2022/05/14 02:50:24;;;;;;;17.80;7.25;;;;;;;;;;4999508;28;20438;-80
2022/05/14 02:52:52;;;;;;;16.90;6.80;;;;;;;;;;5002678;28;20428;-79
2022/05/14 02:55:18;;;;;;;13.77;7.00;;;;;;;;;;5003735;28;20432;-80
2022/05/14 02:57:45;;;;;;;13.52;7.18;;;;;;;;;;5003382;28;20513;-80
2022/05/14 03:00:13;;;;;;;18.38;7.45;;;;;;;;;;5002492;28;20440;-80
2022/05/14 03:02:39;;;;;;;17.38;7.18;;;;;;;;;;5003069;28;20441;-80
2022/05/14 03:05:06;;;;;;;11.65;7.15;;;;;;;;;;5002518;28;20436;-80
2022/05/14 03:07:33;;;;;;;13.85;6.80;;;;;;;;;;5001252;28;20429;-81
2022/05/14 03:10:00;;;;;;;16.17;7.43;;;;;;;;;;5001059;28;20436;-80
2022/05/14 03:12:26;;;;;;;13.77;7.82;;;;;;;;;;4998618;28;20934;-80
2022/05/14 03:14:53;;;;;;;12.85;6.43;;;;;;;;;;5001300;28;20438;-81
2022/05/14 03:17:19;;;;;;;12.93;7.22;;;;;;;;;;5003552;28;20476;-80
2022/05/14 03:19:46;;;;;;;15.43;7.82;;;;;;;;;;5067133;22;20445;-84
2022/05/14 03:22:12;;;;;;;14.90;7.67;;;;;;;;;;5025287;28;20434;-83
2022/05/14 03:24:38;;;;;;;13.60;6.93;;;;;;;;;;5024128;28;20439;-84
2022/05/14 03:27:07;;;;;;;17.70;8.07;;;;;;;;;;5019303;28;20930;-83
2022/05/14 03:29:33;;;;;;;19.90;8.23;;;;;;;;;;5025178;28;20508;-83
2022/05/14 03:31:59;;;;;;;15.05;7.30;;;;;;;;;;5024762;28;20407;-83
2022/05/14 03:34:26;;;;;;;17.40;7.47;;;;;;;;;;5024909;28;20462;-85
2022/05/14 03:36:53;;;;;;;13.88;7.30;;;;;;;;;;5016839;28;20526;-83
2022/05/14 03:39:19;;;;;;;16.92;8.38;;;;;;;;;;5024647;28;20431;-84
2022/05/14 03:41:46;;;;;;;17.00;7.20;;;;;;;;;;5020451;28;20459;-84
2022/05/14 03:44:14;;;;;;;16.13;8.05;;;;;;;;;;5026698;28;20431;-84
2022/05/14 03:46:42;;;;;;;15.75;7.53;;;;;;;;;;5024633;28;20443;-83
2022/05/14 03:49:08;;;;;;;14.82;7.32;;;;;;;;;;5024480;28;20459;-84
2022/05/14 03:51:34;;;;;;;11.52;7.18;;;;;;;;;;5016223;28;20796;-83
2022/05/14 03:54:01;;;;;;;16.40;6.97;;;;;;;;;;5026463;28;20434;-83
2022/05/14 03:56:27;;;;;;;17.25;7.40;;;;;;;;;;5020296;28;20527;-84
2022/05/14 03:58:53;;;;;;;16.30;7.80;;;;;;;;;;5028055;28;20924;-83
2022/05/14 04:01:21;;;;;;;15.80;7.18;;;;;;;;;;5025783;28;20426;-83
2022/05/14 04:03:48;;;;;;;18.30;7.63;;;;;;;;;;5025161;28;20427;-83
2022/05/14 04:06:15;;;;;;;12.95;7.38;;;;;;;;;;5023174;28;20443;-83
2022/05/14 04:08:42;;;;;;;14.45;7.50;;;;;;;;;;5028406;28;20432;-83
2022/05/14 04:11:08;;;;;;;15.65;7.10;;;;;;;;;;5023480;28;20588;-83
2022/05/14 04:13:35;;;;;;;16.23;7.97;;;;;;;;;;5020438;28;20454;-83
2022/05/14 04:16:01;;;;;;;17.90;7.90;;;;;;;;;;5025039;28;20878;-84
2022/05/14 04:18:29;;;;;;;16.25;8.20;;;;;;;;;;5024205;28;20425;-82
2022/05/14 04:20:56;;;;;;;17.08;8.30;;;;;;;;;;5024245;28;20435;-84
2022/05/14 04:23:22;;;;;;;14.68;7.85;;;;;;;;;;5025012;28;20864;-84
2022/05/14 04:25:49;;;;;;;16.10;8.35;;;;;;;;;;5026037;28;20477;-84
2022/05/14 04:28:16;;;;;;;15.98;8.30;;;;;;;;;;5027473;28;20417;-83
2022/05/14 04:30:42;;;;;;;17.63;8.60;;;;;;;;;;5025092;28;20435;-84
2022/05/14 04:33:08;;;;;;;18.00;8.80;;;;;;;;;;5028475;28;20656;-84
2022/05/14 04:35:36;;;;;;;20.02;8.95;;;;;;;;;;5018495;28;20438;-84
2022/05/14 04:38:02;;;;;;;22.73;8.60;;;;;;;;;;5021548;28;20441;-83
2022/05/14 04:40:29;;;;;;;14.65;7.80;;;;;;;;;;5026130;28;20427;-83
2022/05/14 04:42:55;;;;;;;24.77;8.60;;;;;;;;;;5021587;28;20433;-84
2022/05/14 04:45:22;;;;;;;17.03;8.23;;;;;;;;;;5026039;28;20435;-84
2022/05/14 04:47:48;;;;;;;15.43;8.33;;;;;;;;;;5027332;28;20508;-83
2022/05/14 04:50:16;;;;;;;18.55;8.73;;;;;;;;;;5021254;28;20445;-84
2022/05/14 04:52:44;;;;;;;19.42;9.43;;;;;;;;;;5022323;28;20418;-83
2022/05/14 04:55:10;;;;;;;26.63;8.57;;;;;;;;;;5022703;28;20439;-85
2022/05/14 04:57:38;;;;;;;23.67;8.77;;;;;;;;;;5023789;28;20483;-86
2022/05/14 05:00:05;;;;;;;20.37;9.63;;;;;;;;;;5027718;28;20463;-84
2022/05/14 05:05:15;;;;;;;18.25;9.18;;;;;;;;;;5024572;28;20471;-84
2022/05/14 05:07:42;;;;;;;19.45;9.25;;;;;;;;;;5025383;28;20414;-83
2022/05/14 05:10:09;;;;;;;20.85;9.95;;;;;;;;;;5024167;28;20429;-83
2022/05/14 05:12:36;;;;;;;20.95;9.85;;;;;;;;;;5022191;28;20467;-84
2022/05/14 05:15:02;;;;;;;20.30;9.80;;;;;;;;;;5026166;28;20442;-84
2022/05/14 05:17:28;;;;;;;21.17;9.85;;;;;;;;;;5017058;28;20421;-83
2022/05/14 05:19:55;;;;;;;21.45;9.63;;;;;;;;;;5017779;28;20459;-84
2022/05/14 05:22:21;;;;;;;20.93;9.50;;;;;;;;;;5024764;28;20434;-83
2022/05/14 05:24:48;;;;;;;23.60;9.45;;;;;;;;;;5027210;28;20421;-83
2022/05/14 05:27:15;;;;;;;18.67;9.75;;;;;;;;;;5027179;28;20449;-84
2022/05/14 05:29:42;;;;;;;20.38;9.70;;;;;;;;;;5024376;28;20497;-83
2022/05/14 05:32:08;;;;;;;25.93;10.53;;;;;;;;;;5023238;28;20982;-84
2022/05/14 05:34:35;;;;;;;18.95;9.45;;;;;;;;;;5026336;28;20438;-84
2022/05/14 05:37:01;;;;;;;22.37;10.10;;;;;;;;;;5022614;28;20413;-83
2022/05/14 05:39:27;;;;;;;24.38;10.38;;;;;;;;;;5023703;28;20444;-84
2022/05/14 05:41:54;;;;;;;24.27;11.27;;;;;;;;;;5019454;28;20420;-83
2022/05/14 05:44:21;;;;;;;24.73;9.82;;;;;;;;;;5018020;28;20444;-84
2022/05/14 05:46:48;;;;;;;24.48;10.40;;;;;;;;;;5015144;28;20502;-83
2022/05/14 05:49:14;;;;;;;19.40;10.70;;;;;;;;;;5022417;28;20439;-84
2022/05/14 05:51:40;;;;;;;25.55;10.77;;;;;;;;;;5020984;28;20931;-83
2022/05/14 05:56:56;;;;;;;23.75;10.23;;;;;;;;;;5019322;28;20548;-83
2022/05/14 05:59:24;;;;;;;24.83;11.30;;;;;;;;;;5023325;28;20438;-83
2022/05/14 06:01:51;;;;;;;27.08;9.60;;;;;;;;;;5021832;28;20436;-84
2022/05/14 06:04:18;;;;;;;27.13;10.88;;;;;;;;;;5026331;28;20439;-83
2022/05/14 06:06:44;;;;;;;23.15;10.68;;;;;;;;;;5019800;28;20428;-83
2022/05/14 06:09:12;;;;;;;25.75;10.73;;;;;;;;;;5024332;28;20854;-84
2022/05/14 06:11:38;;;;;;;20.05;9.68;;;;;;;;;;5021047;28;20432;-84
2022/05/14 06:14:05;;;;;;;26.58;9.90;;;;;;;;;;5015654;28;20934;-84
2022/05/14 06:16:32;;;;;;;28.23;10.77;;;;;;;;;;5016553;28;20438;-85
2022/05/14 06:18:59;;;;;;;29.73;10.53;;;;;;;;;;5023512;28;20425;-84
2022/05/14 06:21:25;;;;;;;25.92;10.68;;;;;;;;;;5024449;28;20421;-85
2022/05/14 06:23:51;;;;;;;20.27;9.60;;;;;;;;;;5016675;28;20432;-84
2022/05/14 06:26:18;;;;;;;24.37;10.27;;;;;;;;;;5023209;28;21670;-85
2022/05/14 06:28:44;;;;;;;21.23;9.45;;;;;;;;;;5021949;28;20427;-85
2022/05/14 06:31:10;;;;;;;26.08;10.15;;;;;;;;;;5022131;28;20432;-85
2022/05/14 06:33:38;;;;;;;24.40;9.50;;;;;;;;;;5024440;28;20439;-84
2022/05/14 06:36:04;;;;;;;22.95;9.27;;;;;;;;;;5020650;28;20441;-84
2022/05/14 06:38:31;;;;;;;25.52;10.27;;;;;;;;;;5024880;28;20425;-85
2022/05/14 06:41:04;;;;;;;29.27;10.10;;;;;;;;;;5017980;28;20431;-85
2022/05/14 06:43:30;;;;;;;27.53;9.53;;;;;;;;;;5024029;28;20497;-84
2022/05/14 06:45:56;;;;;;;25.20;9.30;;;;;;;;;;5022901;28;20449;-84
2022/05/14 06:48:23;;;;;;;21.70;8.88;;;;;;;;;;5023645;28;21414;-84
2022/05/14 06:50:51;;;;;;;27.58;9.02;;;;;;;;;;5020147;28;20438;-85
2022/05/14 06:53:19;;;;;;;20.85;8.80;;;;;;;;;;5023913;28;20466;-84
2022/05/14 06:55:47;;;;;;;24.92;9.32;;;;;;;;;;5019925;28;21025;-86
2022/05/14 06:58:14;;;;;;;23.10;8.70;;;;;;;;;;5018751;28;20491;-84
2022/05/14 07:00:41;;;;;;;24.75;9.07;;;;;;;;;;5019068;28;20995;-84
2022/05/14 07:08:37;;;;;;;23.00;8.27;;;;;;;;;;5013828;28;20556;-85
2022/05/14 07:11:03;;;;;;;21.98;7.55;;;;;;;;;;5020496;28;20432;-84
2022/05/14 07:13:30;;;;;;;26.05;8.45;;;;;;;;;;5020917;28;20424;-86
2022/05/14 07:15:56;;;;;;;20.70;8.60;;;;;;;;;;5021525;28;20427;-84
2022/05/14 07:18:22;;;;;;;20.57;8.03;;;;;;;;;;5020818;28;20929;-84
2022/05/14 07:20:49;;;;;;;22.90;8.10;;;;;;;;;;5019086;28;20853;-85
2022/05/14 07:23:16;;;;;;;26.52;8.00;;;;;;;;;;5017838;28;20416;-85
2022/05/14 07:25:43;;;;;;;21.60;7.53;;;;;;;;;;5018798;28;20444;-86
2022/05/14 07:28:09;;;;;;;20.73;7.07;;;;;;;;;;5015646;28;20436;-84
2022/05/14 07:30:35;;;;;;;24.80;8.32;;;;;;;;;;5020470;28;20526;-85
2022/05/14 07:33:02;;;;;;;20.80;7.10;;;;;;;;;;5020719;28;20431;-85
2022/05/14 07:35:28;;;;;;;21.10;7.35;;;;;;;;;;5021772;28;20483;-85
2022/05/14 07:37:56;;;;;;;20.88;7.78;;;;;;;;;;5018069;28;20431;-84
2022/05/14 07:40:25;;;;;;;18.90;6.70;;;;;;;;;;5018021;28;20438;-85
2022/05/14 07:42:54;;;;;;;17.58;6.40;;;;;;;;;;5018969;28;20428;-85
2022/05/14 07:45:23;;;;;;;16.80;6.40;;;;;;;;;;5018876;28;20496;-86
2022/05/14 07:47:50;;;;;;;20.37;6.50;;;;;;;;;;5019966;28;20473;-84
2022/05/14 07:50:17;;;;;;;13.32;5.28;;;;;;;;;;5020381;28;20442;-84
2022/05/14 07:52:44;;;;;;;14.95;6.00;;;;;;;;;;5018042;28;20429;-85
2022/05/14 07:55:11;;;;;;;15.40;5.53;;;;;;;;;;5019132;28;20520;-85
2022/05/14 07:57:38;;;;;;;14.82;5.38;;;;;;;;;;5017463;28;20416;-83
2022/05/14 08:00:06;;;;;;;11.40;4.35;;;;;;;;;;5017842;28;20457;-84
2022/05/14 08:02:34;;;;;;;16.95;5.68;;;;;;;;;;5021274;28;20425;-85
2022/05/14 08:05:02;;;;;;;14.95;5.30;;;;;;;;;;5020865;28;20481;-86
2022/05/14 08:07:29;;;;;;;14.43;5.43;;;;;;;;;;5022916;28;20866;-85
2022/05/14 08:09:55;;;;;;;14.37;5.50;;;;;;;;;;5015219;28;20916;-85
2022/05/14 08:12:22;;;;;;;13.30;5.07;;;;;;;;;;5019180;28;20965;-84
2022/05/14 08:14:49;;;;;;;13.07;4.63;;;;;;;;;;5015581;28;20514;-85
2022/05/14 08:17:16;;;;;;;13.23;4.43;;;;;;;;;;5020540;28;20791;-84
2022/05/14 08:19:42;;;;;;;12.73;4.72;;;;;;;;;;5022396;28;20495;-85
2022/05/14 08:24:52;;;;;;;17.70;5.35;;;;;;;;;;5014111;28;20424;-85
2022/05/14 08:27:19;;;;;;;14.30;4.50;;;;;;;;;;5021644;28;20914;-85
2022/05/14 08:29:47;;;;;;;15.02;5.05;;;;;;;;;;5017226;28;20436;-86
2022/05/14 08:32:18;;;;;;;13.25;4.40;;;;;;;;;;5021311;28;20419;-87
2022/05/14 08:34:44;;;;;;;14.30;4.70;;;;;;;;;;5021930;28;20523;-85
2022/05/14 08:37:11;;;;;;;11.20;4.65;;;;;;;;;;5009742;28;20505;-85
2022/05/14 08:39:38;;;;;;;15.82;5.10;;;;;;;;;;5002174;28;20436;-85
2022/05/14 08:42:06;;;;;;;12.68;4.80;;;;;;;;;;5002462;28;20483;-85
2022/05/14 08:44:33;;;;;;;14.15;4.95;;;;;;;;;;5009118;28;20419;-85
2022/05/14 08:47:03;;;;;;;18.88;5.60;;;;;;;;;;5002599;28;20432;-85
2022/05/14 08:49:34;;;;;;;11.73;4.90;;;;;;;;;;5016600;28;20433;-87
2022/05/14 08:52:00;;;;;;;13.82;5.10;;;;;;;;;;5013930;28;20427;-86
2022/05/14 08:54:27;;;;;;;13.60;4.37;;;;;;;;;;5017774;28;20439;-82
2022/05/14 08:56:58;;;;;;;14.77;4.97;;;;;;;;;;5016003;28;20434;-85
2022/05/14 08:59:30;;;;;;;19.30;5.50;;;;;;;;;;5019890;28;20432;-86
2022/05/14 09:02:00;;;;;;;15.88;5.13;;;;;;;;;;5013645;28;20448;-86
2022/05/14 09:04:26;;;;;;;18.00;5.43;;;;;;;;;;5014176;28;20421;-86
2022/05/14 09:06:54;;;;;;;12.18;4.38;;;;;;;;;;5014725;28;20435;-87
2022/05/14 09:09:20;;;;;;;18.10;5.57;;;;;;;;;;5016182;28;20466;-86
2022/05/14 09:11:52;;;;;;;20.52;5.70;;;;;;;;;;5015556;28;20865;-86
2022/05/14 09:14:21;;;;;;;18.88;6.15;;;;;;;;;;5018129;28;20416;-86
2022/05/14 09:16:50;;;;;;;21.15;5.45;;;;;;;;;;5016923;28;20432;-86
2022/05/14 09:19:18;;;;;;;17.83;5.00;;;;;;;;;;5019116;28;20419;-86
2022/05/14 09:21:49;;;;;;;17.05;5.50;;;;;;;;;;5032066;22;20998;-80
2022/05/14 09:24:19;;;;;;;13.63;5.50;;;;;;;;;;5027531;28;20477;-81
2022/05/14 09:26:45;;;;;;;18.17;5.22;;;;;;;;;;5030544;28;20418;-81
2022/05/14 09:29:14;;;;;;;14.18;5.40;;;;;;;;;;5027880;28;21470;-81
2022/05/14 09:31:50;;;;;;;12.63;5.22;;;;;;;;;;5031256;28;20449;-82
2022/05/14 09:34:17;;;;;;;14.47;4.80;;;;;;;;;;5030690;28;20403;-79
2022/05/14 09:36:45;;;;;;;13.60;5.20;;;;;;;;;;5026477;28;20438;-78
2022/05/14 09:39:13;;;;;;;13.05;4.70;;;;;;;;;;5026824;28;20434;-80
2022/05/14 09:41:42;;;;;;;17.60;5.20;;;;;;;;;;5028278;28;20229;-80
2022/05/14 09:44:14;;;;;;;18.43;5.07;;;;;;;;;;5028451;28;20465;-80
2022/05/14 09:46:42;;;;;;;7.70;3.93;;;;;;;;;;5040953;28;21283;-79
2022/05/14 09:49:09;;;;;;;12.27;4.70;;;;;;;;;;5046909;28;20460;-80
2022/05/14 09:51:37;;;;;;;14.40;4.80;;;;;;;;;;5046474;28;20533;-79
2022/05/14 09:54:13;;;;;;;18.77;5.80;;;;;;;;;;5047719;28;20456;-80
2022/05/14 09:56:50;;;;;;;13.50;4.30;;;;;;;;;;5046845;28;20518;-80
2022/05/14 09:59:26;;;;;;;10.77;4.43;;;;;;;;;;5046605;28;20981;-79
2022/05/14 10:01:58;;;;;;;11.30;4.63;;;;;;;;;;5045751;28;20895;-82
2022/05/14 10:04:32;;;;;;;15.37;4.60;;;;;;;;;;5047854;28;20541;-82
2022/05/14 10:07:03;;;;;;;10.17;4.43;;;;;;;;;;5046554;28;20499;-82
2022/05/14 10:09:33;;;;;;;10.47;4.40;;;;;;;;;;5046311;28;20534;-78
2022/05/14 10:12:07;;;;;;;10.67;4.10;;;;;;;;;;5047741;28;20483;-80
2022/05/14 10:14:42;;;;;;;20.77;4.87;;;;;;;;;;5049429;28;20479;-81
2022/05/14 10:17:23;;;;;;;13.70;4.77;;;;;;;;;;5047102;28;20487;-81
2022/05/14 10:20:03;;;;;;;12.13;4.43;;;;;;;;;;5046867;28;20510;-81
2022/05/14 10:26:44;;;;;;;19.00;5.00;;;;;;;;;;5046142;28;21289;-81
2022/05/14 10:28:10;;;;;;;14.53;5.43;;;;;;;;;;5046213;28;21005;-80
2022/05/14 10:30:42;;;;;;;24.03;6.23;;;;;;;;;;5044585;28;20841;-80
2022/05/14 10:33:12;;;;;;;15.33;5.17;;;;;;;;;;5046956;28;20460;-81
2022/05/14 10:35:41;;;;;;;17.83;4.80;;;;;;;;;;5046002;28;20451;-79
2022/05/14 10:38:13;;;;;;;14.23;5.20;;;;;;;;;;5052681;28;20444;-81
2022/05/14 10:40:42;;;;;;;14.33;3.53;;;;;;;;;;5050153;28;20488;-81
2022/05/14 10:43:15;;;;;;;19.27;5.67;;;;;;;;;;5052887;28;20859;-83
2022/05/14 10:45:44;;;;;;;17.23;5.67;;;;;;;;;;5051182;28;20479;-79
2022/05/14 10:48:16;;;;;;;13.97;5.37;;;;;;;;;;5048893;28;20474;-81
2022/05/14 10:50:43;;;;;;;15.97;4.70;;;;;;;;;;5047331;28;20483;-83
2022/05/14 10:53:10;;;;;;;14.43;4.80;;;;;;;;;;5050681;28;20491;-81
2022/05/14 10:55:45;;;;;;;11.37;5.57;;;;;;;;;;5049068;28;20525;-81
2022/05/14 10:58:20;;;;;;;14.33;5.33;;;;;;;;;;5052051;28;20509;-81
2022/05/14 11:00:47;;;;;;;13.73;4.97;;;;;;;;;;5051340;28;20917;-81
2022/05/14 11:03:15;;;;;;;14.27;4.83;;;;;;;;;;5052231;28;21035;-81
2022/05/14 11:05:53;;;;;;;17.93;5.57;;;;;;;;;;5047686;28;20472;-81
2022/05/14 11:08:28;;;;;;;11.63;4.17;;;;;;;;;;5052582;28;20867;-80
2022/05/14 11:11:01;;;;;;;14.83;5.20;;;;;;;;;;5048411;28;20903;-81
2022/05/14 11:13:29;;;;;;;14.60;4.63;;;;;;;;;;5053464;28;20448;-80
2022/05/14 11:15:59;;;;;;;19.73;5.60;;;;;;;;;;5049843;28;20537;-82
2022/05/14 11:18:25;;;;;;;19.83;5.00;;;;;;;;;;5053242;28;21013;-80
2022/05/14 11:20:53;;;;;;;22.43;4.80;;;;;;;;;;5048006;28;20458;-80
2022/05/14 11:23:20;;;;;;;10.73;4.07;;;;;;;;;;5052653;28;20448;-79
2022/05/14 11:25:46;;;;;;;15.37;5.40;;;;;;;;;;5050226;28;20482;-81
2022/05/14 11:28:14;;;;;;;16.10;4.67;;;;;;;;;;5050139;28;20510;-79
2022/05/14 11:30:42;;;;;;;11.00;4.67;;;;;;;;;;5050431;28;20484;-82
2022/05/14 11:33:18;;;;;;;12.87;5.23;;;;;;;;;;5052077;28;20448;-80
2022/05/14 11:35:45;;;;;;;12.97;4.10;;;;;;;;;;5050015;28;20889;-79
2022/05/14 11:38:13;;;;;;;14.13;4.17;;;;;;;;;;5051451;28;20439;-81
2022/05/14 11:40:39;;;;;;;24.37;4.53;;;;;;;;;;5048283;28;20479;-81
2022/05/14 11:43:11;;;;;;;13.53;4.30;;;;;;;;;;5053648;28;20946;-79
2022/05/14 11:45:40;;;;;;;13.90;5.03;;;;;;;;;;5049715;28;20570;-82
2022/05/14 11:48:09;;;;;;;16.47;4.93;;;;;;;;;;5049018;28;20456;-83
2022/05/14 11:50:37;;;;;;;15.60;4.30;;;;;;;;;;5048761;28;20546;-80
2022/05/14 11:53:09;;;;;;;18.87;4.70;;;;;;;;;;5052632;28;20509;-80
2022/05/14 11:55:37;;;;;;;12.53;4.70;;;;;;;;;;5048544;28;20845;-81
2022/05/14 11:58:04;;;;;;;21.63;5.70;;;;;;;;;;5046274;28;20452;-79
2022/05/14 12:00:32;;;;;;;16.23;5.70;;;;;;;;;;5049742;28;21069;-81
2022/05/14 12:03:01;;;;;;;16.00;5.40;;;;;;;;;;5053138;28;20509;-80
2022/05/14 12:05:32;;;;;;;18.90;5.53;;;;;;;;;;5046747;28;20468;-82
2022/05/14 12:08:09;;;;;;;12.20;4.80;;;;;;;;;;5046444;28;20456;-78
2022/05/14 12:10:42;;;;;;;14.30;5.37;;;;;;;;;;5049010;28;21019;-80
2022/05/14 12:13:10;;;;;;;22.53;4.90;;;;;;;;;;5050663;28;20461;-80
2022/05/14 12:15:37;;;;;;;13.33;4.87;;;;;;;;;;5047723;28;20500;-81
2022/05/14 12:18:03;;;;;;;13.60;5.23;;;;;;;;;;5049427;28;20590;-77
2022/05/14 12:20:32;;;;;;;15.67;5.37;;;;;;;;;;5050964;28;20992;-80
2022/05/14 12:23:00;;;;;;;21.40;5.80;;;;;;;;;;5048921;28;20463;-81
2022/05/14 12:25:37;;;;;;;11.50;4.33;;;;;;;;;;5045302;28;20529;-80
2022/05/14 12:28:03;;;;;;;15.43;5.33;;;;;;;;;;5049623;28;20981;-77
2022/05/14 12:33:14;;;;;;;16.57;5.00;;;;;;;;;;5048943;28;20964;-80
2022/05/14 12:35:44;;;;;;;15.87;4.97;;;;;;;;;;5044033;28;20478;-80
2022/05/14 12:38:12;;;;;;;19.10;4.90;;;;;;;;;;5050682;28;20874;-80
2022/05/14 12:40:39;;;;;;;16.63;6.03;;;;;;;;;;5046627;28;20483;-80
2022/05/14 12:43:06;;;;;;;25.00;6.50;;;;;;;;;;5051035;28;20441;-78
2022/05/14 12:45:33;;;;;;;15.17;5.87;;;;;;;;;;5047953;28;20525;-80
2022/05/14 12:48:00;;;;;;;14.73;6.10;;;;;;;;;;5049201;28;20456;-78
2022/05/14 12:50:30;;;;;;;18.60;5.10;;;;;;;;;;5043480;28;20533;-81
2022/05/14 12:52:59;;;;;;;14.23;5.43;;;;;;;;;;5049316;28;21037;-81
2022/05/14 12:55:26;;;;;;;21.53;5.53;;;;;;;;;;5046920;28;20475;-81
2022/05/14 12:57:53;;;;;;;19.07;5.40;;;;;;;;;;5046795;28;20480;-81
2022/05/14 13:00:20;;;;;;;14.63;5.40;;;;;;;;;;5046657;28;20480;-82
2022/05/14 13:02:48;;;;;;;16.73;5.47;;;;;;;;;;5045714;28;20460;-81
2022/05/14 13:05:17;;;;;;;19.83;5.03;;;;;;;;;;5047829;28;20575;-82
2022/05/14 13:07:46;;;;;;;18.00;6.00;;;;;;;;;;5050231;28;20484;-80
2022/05/14 13:10:16;;;;;;;22.20;6.53;;;;;;;;;;5047293;28;20899;-81
2022/05/14 13:12:47;;;;;;;21.77;6.40;;;;;;;;;;5048905;28;20467;-82
2022/05/14 13:15:14;;;;;;;21.73;6.30;;;;;;;;;;5047500;28;20479;-80
2022/05/14 13:17:41;;;;;;;17.53;5.90;;;;;;;;;;5050427;28;20530;-81
2022/05/14 13:20:15;;;;;;;20.07;5.80;;;;;;;;;;5048704;28;20442;-81
2022/05/14 13:22:42;;;;;;;16.70;5.20;;;;;;;;;;5051557;28;20478;-81
2022/05/14 13:25:26;;;;;;;19.20;5.60;;;;;;;;;;5047029;28;20545;-81
2022/05/14 13:27:52;;;;;;;22.00;6.30;;;;;;;;;;5048263;28;20491;-81
2022/05/14 13:30:31;;;;;;;18.50;5.60;;;;;;;;;;5046812;28;20549;-80
2022/05/14 13:33:02;;;;;;;20.43;5.60;;;;;;;;;;5046697;28;20463;-81
2022/05/14 13:38:15;;;;;;;18.23;4.63;;;;;;;;;;5022800;28;20457;-82
2022/05/14 13:40:45;;;;;;;13.83;5.00;;;;;;;;;;5048013;28;20458;-81
2022/05/14 13:43:14;;;;;;;15.33;4.67;;;;;;;;;;5049112;28;20467;-81
2022/05/14 13:45:44;;;;;;;23.67;5.63;;;;;;;;;;5046594;28;20553;-82
2022/05/14 13:48:12;;;;;;;20.57;5.73;;;;;;;;;;5049478;28;21016;-81
2022/05/14 13:50:39;;;;;;;13.30;5.47;;;;;;;;;;5048172;28;20480;-80
2022/05/14 13:53:07;;;;;;;16.47;6.20;;;;;;;;;;5049119;28;20847;-81
2022/05/14 13:55:35;;;;;;;13.60;4.73;;;;;;;;;;5047480;28;20475;-78
2022/05/14 13:58:05;;;;;;;12.83;5.40;;;;;;;;;;5047706;28;20506;-79
2022/05/14 14:00:36;;;;;;;15.73;5.40;;;;;;;;;;5041677;28;20529;-80
2022/05/14 14:03:04;;;;;;;22.03;6.20;;;;;;;;;;5048064;28;20451;-80
2022/05/14 14:05:31;;;;;;;15.40;6.53;;;;;;;;;;5043832;28;20491;-78
2022/05/14 14:07:58;;;;;;;17.43;5.80;;;;;;;;;;5049541;28;20440;-79
2022/05/14 14:10:32;;;;;;;13.67;4.90;;;;;;;;;;5048766;28;20468;-80
2022/05/14 14:12:59;;;;;;;17.03;5.80;;;;;;;;;;5053779;28;20451;-81
2022/05/14 14:15:28;;;;;;;20.53;5.13;;;;;;;;;;5051063;28;20501;-80
2022/05/14 14:17:55;;;;;;;13.93;5.33;;;;;;;;;;5048477;28;20502;-81
2022/05/14 14:20:22;;;;;;;16.60;4.87;;;;;;;;;;5050912;28;20552;-81
2022/05/14 14:22:48;;;;;;;16.13;5.70;;;;;;;;;;5049628;28;20478;-79
2022/05/14 14:25:15;;;;;;;17.50;5.03;;;;;;;;;;5052626;28;20471;-79
2022/05/14 14:27:41;;;;;;;15.77;4.40;;;;;;;;;;5048403;28;20464;-78
2022/05/14 14:30:10;;;;;;;15.50;4.37;;;;;;;;;;5048735;28;20483;-78
2022/05/14 14:32:38;;;;;;;9.60;3.83;;;;;;;;;;5051753;28;20719;-79
2022/05/14 14:35:05;;;;;;;14.30;5.13;;;;;;;;;;5049188;28;20491;-80
2022/05/14 14:37:32;;;;;;;10.93;4.67;;;;;;;;;;5051066;28;20996;-81
2022/05/14 14:39:59;;;;;;;9.43;3.70;;;;;;;;;;5050694;28;20993;-78
2022/05/14 14:42:25;;;;;;;9.97;4.13;;;;;;;;;;5053216;28;20463;-80
2022/05/14 14:44:52;;;;;;;14.07;4.37;;;;;;;;;;5047191;28;21069;-79
2022/05/14 14:47:18;;;;;;;13.57;4.53;;;;;;;;;;5053306;28;20436;-81
2022/05/14 14:49:45;;;;;;;15.10;3.93;;;;;;;;;;5051080;28;20475;-77
2022/05/14 14:52:12;;;;;;;13.53;4.47;;;;;;;;;;5051878;28;20475;-79
2022/05/14 14:54:38;;;;;;;16.97;4.30;;;;;;;;;;5049891;28;21017;-81
2022/05/14 14:57:05;;;;;;;12.63;4.67;;;;;;;;;;5049139;28;20492;-81
2022/05/14 14:59:31;;;;;;;10.23;3.80;;;;;;;;;;5050585;28;20482;-79